createdAt,value
2018-09-20T00:01:24.786Z,57.80
2018-09-20T00:03:53.035Z,58.30
2018-09-20T00:06:21.306Z,58.80
2018-09-20T00:08:49.503Z,58.50
2018-09-20T00:11:17.735Z,58.60
2018-09-20T00:13:45.990Z,58.50
2018-09-20T00:16:14.210Z,58.50
2018-09-20T00:18:43.338Z,59.00
2018-09-20T00:21:11.596Z,59.30
2018-09-20T00:23:39.909Z,59.30
2018-09-20T00:26:08.238Z,59.10
2018-09-20T00:28:36.536Z,58.60
2018-09-20T00:31:04.814Z,59.10
2018-09-20T00:33:33.297Z,59.20
2018-09-20T00:36:02.477Z,58.90
2018-09-20T00:38:30.937Z,59.40
2018-09-20T00:40:59.178Z,60.50
2018-09-20T00:43:28.217Z,60.00
2018-09-20T00:45:56.483Z,60.00
2018-09-20T00:48:25.080Z,60.40
2018-09-20T00:50:53.293Z,60.40
2018-09-20T00:53:21.560Z,61.00
2018-09-20T00:55:49.872Z,61.10
2018-09-20T00:58:18.225Z,61.10
2018-09-20T01:00:46.781Z,60.70
2018-09-20T01:03:15.053Z,61.30
2018-09-20T01:05:43.851Z,61.40
2018-09-20T01:08:12.156Z,61.70
2018-09-20T01:10:41.385Z,61.70
2018-09-20T01:13:10.008Z,61.10
2018-09-20T01:15:38.292Z,61.50
2018-09-20T01:18:07.301Z,61.30
2018-09-20T01:20:35.588Z,61.20
2018-09-20T01:23:03.839Z,61.30
2018-09-20T01:25:32.772Z,61.00
2018-09-20T01:28:02.286Z,61.40
2018-09-20T01:30:30.701Z,61.80
2018-09-20T01:33:00.609Z,62.10
2018-09-20T01:35:30.883Z,62.40
2018-09-20T01:38:00.153Z,61.80
2018-09-20T01:40:30.156Z,62.20
2018-09-20T01:42:58.405Z,62.30
2018-09-20T01:45:27.160Z,62.70
2018-09-20T01:47:55.375Z,62.60
2018-09-20T01:50:23.892Z,62.70
2018-09-20T01:52:52.142Z,63.10
2018-09-20T01:55:21.095Z,62.80
2018-09-20T01:57:49.750Z,63.20
2018-09-20T02:00:18.011Z,63.20
2018-09-20T02:02:46.400Z,63.20
2018-09-20T02:05:14.608Z,63.20
2018-09-20T02:07:43.092Z,63.50
2018-09-20T02:10:12.019Z,63.70
2018-09-20T02:12:40.280Z,64.00
2018-09-20T02:15:09.616Z,64.20
2018-09-20T02:17:38.245Z,64.60
2018-09-20T02:20:06.581Z,64.60
2018-09-20T02:22:36.331Z,64.70
2018-09-20T02:25:06.178Z,65.10
2018-09-20T02:27:36.098Z,65.40
2018-09-20T02:30:05.311Z,65.40
2018-09-20T02:32:34.230Z,65.40
2018-09-20T02:35:02.839Z,65.00
2018-09-20T02:37:32.113Z,65.70
2018-09-20T02:40:00.371Z,65.90
2018-09-20T02:42:28.949Z,66.00
2018-09-20T02:44:57.662Z,66.40
2018-09-20T02:47:26.264Z,65.90
2018-09-20T02:49:55.792Z,66.60
2018-09-20T02:52:26.890Z,66.60
2018-09-20T02:54:56.581Z,66.60
2018-09-20T02:57:25.501Z,66.00
2018-09-20T02:59:53.889Z,66.60
2018-09-20T03:02:22.876Z,67.00
2018-09-20T03:04:51.160Z,66.90
2018-09-20T03:07:19.457Z,67.00
2018-09-20T03:09:48.113Z,67.20
2018-09-20T03:12:16.363Z,67.20
2018-09-20T03:14:44.618Z,67.60
2018-09-20T03:17:13.084Z,67.70
2018-09-20T03:19:42.557Z,68.10
2018-09-20T03:22:11.086Z,68.30
2018-09-20T03:24:40.442Z,68.50
2018-09-20T03:27:09.397Z,69.00
2018-09-20T03:29:38.048Z,69.50
2018-09-20T03:32:06.879Z,69.20
2018-09-20T03:34:35.199Z,69.40
2018-09-20T03:37:03.434Z,69.20
2018-09-20T03:39:31.990Z,69.70
2018-09-20T03:42:00.867Z,69.10
2018-09-20T03:44:29.629Z,69.60
2018-09-20T03:46:59.220Z,69.80
2018-09-20T03:49:34.476Z,69.50
2018-09-20T03:52:03.032Z,69.60
2018-09-20T03:54:31.898Z,69.50
2018-09-20T03:57:00.545Z,69.40
2018-09-20T03:59:29.128Z,69.30
2018-09-20T04:01:57.394Z,69.30
2018-09-20T04:04:25.740Z,69.20
2018-09-20T04:06:54.537Z,69.60
2018-09-20T04:09:22.777Z,69.00
2018-09-20T04:11:51.820Z,69.60
2018-09-20T04:14:20.045Z,69.60
2018-09-20T04:16:48.877Z,69.70
2018-09-20T04:19:17.452Z,69.70
2018-09-20T04:21:46.772Z,69.50
2018-09-20T04:24:14.949Z,70.40
2018-09-20T04:26:43.521Z,69.60
2018-09-20T04:29:11.792Z,69.60
2018-09-20T04:31:40.409Z,70.00
2018-09-20T04:34:09.277Z,70.20
2018-09-20T04:36:37.570Z,69.90
2018-09-20T04:39:08.550Z,70.30
2018-09-20T04:41:37.066Z,72.00
2018-09-20T04:44:06.611Z,70.90
2018-09-20T04:46:34.910Z,71.20
2018-09-20T04:49:03.769Z,71.40
2018-09-20T04:51:32.348Z,71.30
2018-09-20T04:54:00.599Z,71.80
2018-09-20T04:56:28.806Z,72.30
2018-09-20T04:58:57.062Z,72.30
2018-09-20T05:01:25.379Z,72.40
2018-09-20T05:03:53.892Z,72.50
2018-09-20T05:06:22.766Z,72.60
2018-09-20T05:08:51.129Z,72.50
2018-09-20T05:11:19.658Z,72.80
2018-09-20T05:13:48.602Z,72.90
2018-09-20T05:16:17.987Z,72.80
2018-09-20T05:18:46.849Z,72.50
2018-09-20T05:21:15.864Z,72.50
2018-09-20T05:23:44.643Z,72.50
2018-09-20T05:26:13.641Z,72.30
2018-09-20T05:28:41.905Z,72.40
2018-09-20T05:31:10.801Z,71.10
2018-09-20T05:33:39.027Z,71.60
2018-09-20T05:36:07.283Z,71.30
2018-09-20T05:38:35.518Z,71.30
2018-09-20T05:41:03.731Z,71.30
2018-09-20T05:43:32.108Z,71.40
2018-09-20T05:46:01.176Z,70.80
2018-09-20T05:48:29.452Z,70.50
2018-09-20T05:50:57.962Z,70.50
2018-09-20T05:53:26.557Z,70.50
2018-09-20T05:55:55.139Z,70.50
2018-09-20T05:58:23.784Z,70.20
2018-09-20T06:00:51.996Z,69.60
2018-09-20T06:03:20.282Z,68.80
2018-09-20T06:05:48.843Z,67.90
2018-09-20T06:08:17.029Z,67.00
2018-09-20T06:10:45.892Z,66.70
2018-09-20T06:13:14.423Z,66.70
2018-09-20T06:15:42.622Z,66.40
2018-09-20T06:20:39.016Z,64.90
2018-09-20T06:23:08.036Z,65.00
2018-09-20T06:25:36.379Z,64.60
2018-09-20T06:28:05.251Z,64.10
2018-09-20T06:30:33.481Z,63.50
2018-09-20T06:33:01.676Z,62.20
2018-09-20T06:35:30.424Z,62.70
2018-09-20T06:37:58.701Z,62.10
2018-09-20T06:40:26.921Z,61.30
2018-09-20T06:42:55.436Z,61.80
2018-09-20T06:45:23.674Z,61.30
2018-09-20T06:47:51.872Z,60.20
2018-09-20T06:50:20.421Z,58.70
2018-09-20T06:52:48.720Z,59.20
2018-09-20T06:55:17.025Z,59.00
2018-09-20T06:57:45.296Z,59.10
2018-09-20T07:00:13.585Z,58.70
2018-09-20T07:02:42.158Z,58.70
2018-09-20T07:05:10.439Z,58.40
2018-09-20T07:07:39.092Z,57.80
2018-09-20T07:10:07.362Z,57.70
2018-09-20T07:12:35.933Z,56.40
2018-09-20T07:15:04.305Z,56.90
2018-09-20T07:17:32.853Z,56.60
2018-09-20T07:20:01.229Z,56.40
2018-09-20T07:22:29.460Z,56.00
2018-09-20T07:24:58.296Z,55.30
2018-09-20T07:27:26.920Z,55.40
2018-09-20T07:29:55.225Z,55.20
2018-09-20T07:34:52.394Z,54.50
2018-09-20T07:37:21.288Z,54.40
2018-09-20T07:39:49.577Z,54.80
2018-09-20T07:42:17.877Z,54.30
2018-09-20T07:44:46.141Z,54.40
2018-09-20T07:47:14.364Z,54.20
2018-09-20T07:49:42.590Z,54.20
2018-09-20T07:52:10.907Z,54.00
2018-09-20T07:54:39.156Z,54.10
2018-09-20T07:57:08.114Z,53.80
2018-09-20T07:59:37.336Z,52.70
2018-09-20T08:02:06.015Z,53.20
2018-09-20T08:04:34.426Z,52.60
2018-09-20T08:07:02.940Z,53.50
2018-09-20T08:09:31.756Z,52.50
2018-09-20T08:12:00.200Z,52.50
2018-09-20T08:14:37.377Z,52.30
2018-09-20T08:17:06.788Z,51.80
2018-09-20T08:19:35.680Z,51.20
2018-09-20T08:22:04.062Z,50.90
2018-09-20T08:24:32.516Z,50.40
2018-09-20T08:27:00.679Z,50.20
2018-09-20T08:29:30.328Z,50.40
2018-09-20T08:31:58.562Z,50.20
2018-09-20T08:34:26.879Z,49.90
2018-09-20T08:36:55.564Z,49.50
2018-09-20T08:39:25.232Z,49.70
2018-09-20T08:41:53.472Z,48.50
2018-09-20T08:44:21.693Z,49.00
2018-09-20T08:46:50.360Z,48.60
2018-09-20T08:49:18.880Z,48.20
2018-09-20T08:51:47.181Z,47.90
2018-09-20T08:54:16.284Z,47.80
2018-09-20T08:56:44.717Z,47.70
2018-09-20T08:59:12.888Z,46.20
2018-09-20T09:01:41.117Z,46.80
2018-09-20T09:04:09.647Z,46.10
2018-09-20T09:06:37.824Z,45.10
2018-09-20T09:09:08.908Z,45.50
2018-09-20T09:11:37.759Z,45.00
2018-09-20T09:14:06.752Z,43.90
2018-09-20T09:16:35.256Z,43.40
2018-09-20T09:19:03.520Z,43.90
2018-09-20T09:21:32.700Z,44.10
2018-09-20T09:24:01.246Z,43.90
2018-09-20T09:26:30.961Z,43.30
2018-09-20T09:28:59.984Z,43.20
2018-09-20T09:31:29.864Z,42.90
2018-09-20T09:33:58.343Z,43.10
2018-09-20T09:36:27.071Z,42.80
2018-09-20T09:38:55.751Z,42.80
2018-09-20T09:41:24.381Z,42.40
2018-09-20T09:43:53.220Z,41.00
2018-09-20T09:46:21.599Z,41.50
2018-09-20T09:48:49.796Z,41.30
2018-09-20T09:51:18.687Z,40.60
2018-09-20T09:53:46.982Z,40.40
2018-09-20T09:56:15.341Z,40.10
2018-09-20T09:58:44.221Z,39.80
2018-09-20T10:01:14.156Z,38.30
2018-09-20T10:03:43.736Z,38.30
2018-09-20T10:06:14.226Z,38.80
2018-09-20T10:08:44.195Z,38.00
2018-09-20T10:13:44.386Z,37.80
2018-09-20T10:16:14.801Z,38.10
2018-09-20T10:18:44.950Z,37.90
2018-09-20T10:21:13.236Z,37.20
2018-09-20T10:23:43.327Z,36.80
2018-09-20T10:26:11.713Z,36.90
2018-09-20T10:28:40.847Z,35.90
2018-09-20T10:31:09.425Z,35.70
2018-09-20T10:33:37.664Z,35.10
2018-09-20T10:36:06.656Z,34.40
2018-09-20T10:38:36.428Z,35.00
2018-09-20T10:41:05.007Z,35.20
2018-09-20T10:43:33.682Z,35.20
2018-09-20T10:46:01.916Z,34.90
2018-09-20T10:48:32.481Z,34.40
2018-09-20T10:51:01.059Z,33.30
2018-09-20T10:53:29.343Z,33.00
2018-09-20T10:55:57.977Z,33.30
2018-09-20T10:58:26.907Z,33.70
2018-09-20T11:00:55.201Z,32.50
2018-09-20T11:03:23.877Z,33.00
2018-09-20T11:05:52.575Z,32.20
2018-09-20T11:08:21.506Z,31.60
2018-09-20T11:10:56.603Z,32.20
2018-09-20T11:13:25.394Z,32.30
2018-09-20T11:15:53.771Z,32.10
2018-09-20T11:18:22.199Z,32.10
2018-09-20T11:20:51.054Z,32.00
2018-09-20T11:23:19.908Z,32.60
2018-09-20T11:25:48.488Z,32.60
2018-09-20T11:28:17.066Z,32.00
2018-09-20T11:30:45.272Z,32.60
2018-09-20T11:33:13.663Z,32.70
2018-09-20T11:35:42.891Z,32.40
2018-09-20T11:38:11.104Z,32.30
2018-09-20T11:40:39.381Z,31.60
2018-09-20T11:43:07.709Z,31.50
2018-09-20T11:45:35.978Z,30.60
2018-09-20T11:48:04.588Z,30.00
2018-09-20T11:50:33.184Z,30.20
2018-09-20T11:53:02.010Z,30.00
2018-09-20T11:55:30.309Z,30.00
2018-09-20T11:57:58.766Z,30.00
2018-09-20T12:00:27.665Z,29.40
2018-09-20T12:02:55.992Z,29.40
2018-09-20T12:05:25.311Z,29.60
2018-09-20T12:07:54.022Z,29.30
2018-09-20T12:10:23.156Z,29.80
2018-09-20T12:12:51.470Z,29.40
2018-09-20T12:15:20.174Z,29.70
2018-09-20T12:17:49.743Z,30.00
2018-09-20T12:20:18.122Z,30.00
2018-09-20T12:22:46.504Z,30.00
2018-09-20T12:25:15.261Z,30.00
2018-09-20T12:27:44.857Z,30.30
2018-09-20T12:30:13.219Z,31.20
2018-09-20T12:32:41.483Z,30.40
2018-09-20T12:35:10.023Z,31.10
2018-09-20T12:37:38.676Z,30.00
2018-09-20T12:40:08.476Z,29.40
2018-09-20T12:42:36.777Z,28.90
2018-09-20T12:45:05.025Z,28.00
2018-09-20T12:47:34.001Z,27.80
2018-09-20T12:50:02.361Z,27.30
2018-09-20T12:52:30.944Z,26.10
2018-09-20T12:55:00.329Z,26.30
2018-09-20T12:57:28.523Z,27.40
2018-09-20T12:59:56.965Z,27.70
2018-09-20T13:02:25.543Z,27.30
2018-09-20T13:04:53.965Z,27.30
2018-09-20T13:07:22.272Z,27.40
2018-09-20T13:09:51.606Z,27.30
2018-09-20T13:12:19.963Z,27.30
2018-09-20T13:14:48.394Z,27.30
2018-09-20T13:17:17.113Z,27.90
2018-09-20T13:19:45.392Z,28.00
2018-09-20T13:22:13.761Z,27.90
2018-09-20T13:24:43.458Z,27.90
2018-09-20T13:27:12.174Z,27.80
2018-09-20T13:29:40.420Z,27.60
2018-09-20T13:32:09.273Z,27.20
2018-09-20T13:34:37.603Z,26.60
2018-09-20T13:37:05.839Z,26.20
2018-09-20T13:39:34.045Z,23.20
2018-09-20T13:42:02.593Z,23.60
2018-09-20T13:44:31.087Z,21.70
2018-09-20T13:47:00.316Z,19.60
2018-09-20T13:49:29.528Z,18.50
2018-09-20T13:51:57.806Z,19.10
2018-09-20T13:54:26.492Z,20.30
2018-09-20T13:56:54.798Z,20.70
2018-09-20T13:59:23.112Z,20.70
2018-09-20T14:01:51.356Z,19.40
2018-09-20T14:04:19.946Z,16.70
2018-09-20T14:06:48.618Z,17.20
2018-09-20T14:09:17.224Z,17.10
2018-09-20T14:11:46.122Z,17.20
2018-09-20T14:14:15.164Z,15.80
2018-09-20T14:16:44.065Z,15.80
2018-09-20T14:19:12.681Z,15.00
2018-09-20T14:21:41.097Z,15.10
2018-09-20T14:24:09.508Z,15.10
2018-09-20T14:26:38.491Z,15.10
2018-09-20T14:29:06.884Z,15.50
2018-09-20T14:31:35.147Z,14.60
2018-09-20T14:34:03.613Z,15.10
2018-09-20T14:36:32.115Z,14.60
2018-09-20T14:39:00.880Z,14.60
2018-09-20T14:41:29.238Z,14.00
2018-09-20T14:43:58.086Z,13.90
2018-09-20T14:46:26.685Z,14.20
2018-09-20T14:48:55.575Z,13.40
2018-09-20T14:51:23.861Z,12.40
2018-09-20T14:53:52.604Z,12.80
2018-09-20T14:56:21.436Z,13.20
2018-09-20T14:58:50.323Z,13.30
2018-09-20T15:01:18.766Z,12.60
2018-09-20T15:03:47.483Z,13.10
2018-09-20T15:06:15.761Z,12.70
2018-09-20T15:08:44.061Z,12.90
2018-09-20T15:11:12.423Z,13.00
2018-09-20T15:13:41.551Z,12.90
2018-09-20T15:16:10.093Z,13.00
2018-09-20T15:18:38.410Z,13.10
2018-09-20T15:21:07.094Z,13.10
2018-09-20T15:23:35.328Z,13.10
2018-09-20T15:28:31.953Z,13.70
2018-09-20T15:31:00.270Z,14.60
2018-09-20T15:33:28.474Z,14.80
2018-09-20T15:35:57.305Z,14.60
2018-09-20T15:38:25.618Z,14.40
2018-09-20T15:40:54.854Z,14.80
2018-09-20T15:43:23.164Z,14.90
2018-09-20T15:45:51.576Z,15.00
2018-09-20T15:48:20.041Z,14.90
2018-09-20T15:50:48.285Z,15.50
2018-09-20T15:53:16.872Z,16.00
2018-09-20T15:55:46.133Z,16.30
2018-09-20T15:58:15.695Z,16.40
2018-09-20T16:00:43.973Z,16.10
2018-09-20T16:03:12.743Z,16.40
2018-09-20T16:05:41.006Z,16.20
2018-09-20T16:08:09.455Z,16.70
2018-09-20T16:10:38.010Z,16.90
2018-09-20T16:15:34.863Z,17.50
2018-09-20T16:20:32.690Z,17.50
2018-09-20T16:23:00.924Z,18.50
2018-09-20T16:25:29.430Z,19.00
2018-09-20T16:28:15.116Z,19.20
2018-09-20T16:30:59.372Z,19.20
2018-09-20T16:36:38.788Z,19.80
2018-09-20T16:39:15.599Z,19.80
2018-09-20T16:41:46.950Z,19.90
2018-09-20T16:44:15.129Z,20.40
2018-09-20T16:46:43.709Z,21.30
2018-09-20T16:49:12.229Z,22.70
2018-09-20T16:51:40.643Z,23.60
2018-09-20T16:54:08.974Z,24.80
2018-09-20T16:56:37.212Z,25.30
2018-09-20T16:59:05.749Z,25.50
2018-09-20T17:01:34.306Z,25.90
2018-09-20T17:04:03.255Z,26.20
2018-09-20T17:06:32.304Z,26.50
2018-09-20T17:09:02.887Z,26.90
2018-09-20T17:11:31.477Z,26.80
2018-09-20T17:13:59.655Z,27.40
2018-09-20T17:16:27.875Z,27.10
2018-09-20T17:18:56.295Z,27.50
2018-09-20T17:21:24.496Z,27.60
2018-09-20T17:23:53.365Z,28.10
2018-09-20T17:26:21.529Z,28.10
2018-09-20T17:28:49.676Z,28.30
2018-09-20T17:31:18.107Z,28.60
2018-09-20T17:33:46.320Z,29.10
2018-09-20T17:36:15.529Z,29.10
2018-09-20T17:38:45.167Z,29.60
2018-09-20T17:43:51.309Z,29.20
2018-09-20T17:46:20.194Z,29.80
2018-09-20T17:48:49.200Z,29.80
2018-09-20T17:53:47.045Z,29.80
2018-09-20T17:56:16.668Z,30.00
2018-09-20T17:58:46.393Z,30.40
2018-09-20T18:01:14.856Z,30.80
2018-09-20T18:03:43.601Z,31.00
2018-09-20T18:06:13.372Z,31.20
2018-09-20T18:08:41.828Z,32.50
2018-09-20T18:11:10.896Z,33.90
2018-09-20T18:13:39.200Z,35.20
2018-09-20T18:16:07.873Z,34.50
2018-09-20T18:18:36.025Z,35.10
2018-09-20T18:21:04.543Z,35.00
2018-09-20T18:23:33.420Z,35.80
2018-09-20T18:26:02.340Z,35.20
2018-09-20T18:28:30.547Z,35.60
2018-09-20T18:30:59.473Z,35.30
2018-09-20T18:33:27.651Z,35.80
2018-09-20T18:35:56.684Z,36.70
2018-09-20T18:38:24.971Z,36.70
2018-09-20T18:40:53.448Z,37.10
2018-09-20T18:43:21.711Z,37.10
2018-09-20T18:45:49.922Z,37.90
2018-09-20T18:48:18.469Z,37.60
2018-09-20T18:50:46.703Z,38.00
2018-09-20T18:53:15.172Z,38.10
2018-09-20T18:55:43.436Z,38.40
2018-09-20T18:58:12.255Z,38.40
2018-09-20T19:00:41.016Z,38.90
2018-09-20T19:03:09.240Z,39.30
2018-09-20T19:05:37.420Z,39.30
2018-09-20T19:08:06.174Z,39.30
2018-09-20T19:10:34.640Z,39.30
2018-09-20T19:13:03.149Z,39.20
2018-09-20T19:15:31.362Z,39.80
2018-09-20T19:17:59.637Z,39.70
2018-09-20T19:20:27.826Z,40.30
2018-09-20T19:22:56.381Z,40.10
2018-09-20T19:25:24.686Z,40.40
2018-09-20T19:27:53.579Z,40.00
2018-09-20T19:30:22.220Z,40.80
2018-09-20T19:32:50.728Z,40.40
2018-09-20T19:35:19.233Z,41.00
2018-09-20T19:37:47.396Z,41.10
2018-09-20T19:40:15.626Z,41.30
2018-09-20T19:42:44.204Z,41.40
2018-09-20T19:45:12.404Z,41.30
2018-09-20T19:47:40.578Z,41.90
2018-09-20T19:50:09.111Z,42.00
2018-09-20T19:52:37.652Z,41.90
2018-09-20T19:55:06.256Z,42.10
2018-09-20T19:57:34.321Z,42.30
2018-09-20T20:00:02.508Z,42.50
2018-09-20T20:02:30.700Z,42.70
2018-09-20T20:04:58.925Z,42.80
2018-09-20T20:07:27.445Z,42.80
2018-09-20T20:09:56.568Z,42.80
2018-09-20T20:12:24.753Z,42.80
2018-09-20T20:14:53.096Z,42.50
2018-09-20T20:17:21.356Z,43.20
2018-09-20T20:19:49.858Z,43.00
2018-09-20T20:22:18.064Z,43.00
2018-09-20T20:24:46.251Z,43.50
2018-09-20T20:27:14.689Z,43.40
2018-09-20T20:29:42.863Z,43.90
2018-09-20T20:32:11.176Z,44.00
2018-09-20T20:34:39.644Z,44.90
2018-09-20T20:37:08.165Z,44.00
2018-09-20T20:39:36.741Z,44.40
2018-09-20T20:42:04.972Z,44.40
2018-09-20T20:44:33.553Z,44.50
2018-09-20T20:47:01.786Z,44.50
2018-09-20T20:49:30.069Z,44.60
2018-09-20T20:51:58.326Z,45.00
2018-09-20T20:54:26.501Z,45.10
2018-09-20T20:56:54.926Z,45.10
2018-09-20T20:59:23.146Z,45.30
2018-09-20T21:01:51.690Z,45.30
2018-09-20T21:04:20.564Z,45.30
2018-09-20T21:06:49.352Z,45.30
2018-09-20T21:09:17.558Z,45.60
2018-09-20T21:11:46.580Z,45.80
2018-09-20T21:14:14.797Z,46.20
2018-09-20T21:16:43.032Z,46.40
2018-09-20T21:19:11.808Z,46.60
2018-09-20T21:21:40.238Z,46.60
2018-09-20T21:24:08.765Z,46.90
2018-09-20T21:26:37.351Z,47.10
2018-09-20T21:29:06.131Z,47.20
2018-09-20T21:31:34.585Z,47.10
2018-09-20T21:34:02.784Z,47.40
2018-09-20T21:36:31.288Z,47.70
2018-09-20T21:39:00.875Z,48.00
2018-09-20T21:41:29.112Z,48.00
2018-09-20T21:43:57.404Z,48.00
2018-09-20T21:46:26.030Z,48.50
2018-09-20T21:48:54.243Z,48.60
2018-09-20T21:51:22.744Z,48.70
2018-09-20T21:53:50.941Z,49.10
2018-09-20T21:56:19.709Z,49.60
2018-09-20T21:58:48.411Z,49.30
2018-09-20T22:01:16.601Z,49.30
2018-09-20T22:03:45.075Z,49.60
2018-09-20T22:06:13.947Z,49.90
2018-09-20T22:08:42.150Z,50.00
2018-09-20T22:11:10.999Z,50.10
2018-09-20T22:13:39.193Z,50.00
2018-09-20T22:18:36.397Z,49.50
2018-09-20T22:21:05.095Z,50.00
2018-09-20T22:23:33.344Z,50.00
2018-09-20T22:26:01.876Z,50.30
2018-09-20T22:28:30.094Z,50.60
2018-09-20T22:30:58.674Z,50.70
2018-09-20T22:33:27.926Z,50.70
2018-09-20T22:35:56.219Z,50.70
2018-09-20T22:38:24.790Z,51.10
2018-09-20T22:40:53.098Z,51.10
2018-09-20T22:43:21.324Z,51.30
2018-09-20T22:45:50.196Z,51.10
2018-09-20T22:48:18.431Z,51.30
2018-09-20T22:50:46.785Z,51.80
2018-09-20T22:53:15.388Z,51.70
2018-09-20T22:55:44.253Z,51.40
2018-09-20T22:58:13.081Z,51.80
2018-09-20T23:00:41.446Z,51.70
2018-09-20T23:03:09.977Z,52.10
2018-09-20T23:05:38.242Z,51.60
2018-09-20T23:08:06.602Z,52.30
2018-09-20T23:10:34.865Z,52.40
2018-09-20T23:13:03.386Z,52.90
2018-09-20T23:15:38.624Z,52.90
2018-09-20T23:18:06.861Z,53.00
2018-09-20T23:20:35.132Z,52.60
2018-09-20T23:23:03.876Z,52.70
2018-09-20T23:25:32.468Z,53.00
2018-09-20T23:28:00.688Z,52.80
2018-09-20T23:30:28.897Z,52.60
2018-09-20T23:32:57.100Z,53.10
2018-09-20T23:35:25.364Z,53.20
2018-09-20T23:37:53.757Z,53.80
2018-09-20T23:40:22.285Z,54.10
2018-09-20T23:42:50.760Z,54.20
2018-09-20T23:45:18.992Z,54.10
2018-09-20T23:47:47.483Z,53.90
2018-09-20T23:50:15.775Z,54.20
2018-09-20T23:52:44.356Z,54.50
2018-09-20T23:55:12.543Z,54.00
2018-09-20T23:57:40.810Z,54.60
